Time;durP1;ratioP1;P1;durP2;ratioP2;P2;SDS_P1;SDS_P2;PMS_P1;PMS_P2;Temp;Humidity;BMP_temperature;BMP_pressure;BME280_temperature;BME280_humidity;BME280_pressure;Samples;Min_cycle;Max_cycle;Signal;HPM_P1;HPM_P2
2023/05/05 00:00:12;;;;;;;5.40;3.00;;;12.60;99.90;;;;;;7404290;19;19937;-79
2023/05/05 00:02:42;;;;;;;3.45;2.50;;;12.60;99.90;;;;;;7405685;19;19925;-79
2023/05/05 00:05:11;;;;;;;6.90;2.90;;;10.90;99.90;;;;;;7404406;19;20579;-80
2023/05/05 00:07:43;;;;;;;8.77;3.90;;;12.50;99.90;;;;;;7402046;19;19923;-80
2023/05/05 00:10:12;;;;;;;5.85;2.58;;;12.50;99.90;;;;;;7402278;19;20340;-80
2023/05/05 00:12:41;;;;;;;5.50;2.95;;;12.50;99.90;;;;;;7402167;19;20271;-79
2023/05/05 00:15:11;;;;;;;5.93;2.78;;;12.50;99.90;;;;;;7404559;19;19921;-79
2023/05/05 00:17:40;;;;;;;5.18;2.40;;;12.40;99.90;;;;;;7403299;19;19931;-79
2023/05/05 00:20:10;;;;;;;4.25;2.40;;;12.30;99.90;;;;;;7403746;19;19933;-80
2023/05/05 00:22:45;;;;;;;8.48;3.53;;;12.40;99.90;;;;;;7402285;19;19974;-80
2023/05/05 00:25:13;;;;;;;6.93;3.05;;;12.40;99.90;;;;;;7403560;19;19919;-79
2023/05/05 00:27:42;;;;;;;6.45;3.20;;;12.30;99.90;;;;;;7403287;19;19935;-80
2023/05/05 00:30:12;;;;;;;6.63;2.90;;;12.30;99.90;;;;;;7403114;19;19926;-79
2023/05/05 00:32:41;;;;;;;6.10;2.72;;;12.20;99.90;;;;;;7401896;19;19970;-80
2023/05/05 00:35:11;;;;;;;8.15;2.97;;;12.20;99.90;;;;;;7403012;19;19929;-78
2023/05/05 00:37:43;;;;;;;8.20;2.92;;;12.20;99.90;;;;;;7402968;19;19914;-79
2023/05/05 00:40:13;;;;;;;7.88;3.53;;;12.20;99.90;;;;;;7403036;19;19942;-80
2023/05/05 00:42:43;;;;;;;6.35;3.15;;;12.10;99.90;;;;;;7403324;19;20362;-80
2023/05/05 00:45:14;;;;;;;5.85;3.17;;;12.20;99.90;;;;;;7402418;19;19923;-80
2023/05/05 00:47:44;;;;;;;6.40;3.35;;;12.10;99.90;;;;;;7401932;19;19933;-81
2023/05/05 00:50:22;;;;;;;6.40;2.95;;;12.00;99.90;;;;;;7400882;19;19936;-79
2023/05/05 00:52:56;;;;;;;7.28;3.30;;;11.80;99.90;;;;;;7401187;19;19922;-80
2023/05/05 00:55:25;;;;;;;6.32;3.20;;;12.00;99.90;;;;;;7401940;19;20204;-79
2023/05/05 00:57:54;;;;;;;7.15;2.90;;;11.80;99.90;;;;;;7401276;19;19918;-80
2023/05/05 01:00:23;;;;;;;7.70;3.33;;;12.00;99.90;;;;;;7403023;19;19927;-79
2023/05/05 01:02:52;;;;;;;6.28;2.88;;;11.90;99.90;;;;;;7400907;19;19922;-80
2023/05/05 01:05:23;;;;;;;9.32;3.38;;;12.00;99.90;;;;;;7402276;19;19925;-80
2023/05/05 01:08:12;;;;;;;4.90;3.13;;;12.10;99.90;;;;;;7400784;19;20331;-80
2023/05/05 01:10:47;;;;;;;7.07;2.40;;;11.80;99.90;;;;;;7399352;19;20408;-79
2023/05/05 01:13:27;;;;;;;6.53;3.28;;;11.90;99.90;;;;;;7400934;19;19919;-79
2023/05/05 01:16:02;;;;;;;5.50;3.17;;;11.90;99.90;;;;;;7400883;19;19930;-79
2023/05/05 01:18:39;;;;;;;6.07;3.13;;;11.90;99.90;;;;;;7400521;19;20349;-80
2023/05/05 01:21:14;;;;;;;7.53;3.10;;;11.90;99.90;;;;;;7400432;19;19919;-80
2023/05/05 01:24:20;;;;;;;4.65;3.03;;;11.70;99.90;;;;;;7401469;19;19925;-79
2023/05/05 01:26:56;;;;;;;6.97;2.75;;;11.70;99.90;;;;;;7406980;19;19919;-79
2023/05/05 01:29:49;;;;;;;10.75;3.20;;;11.70;99.90;;;;;;7405721;19;19930;-80
2023/05/05 01:32:27;;;;;;;6.55;3.08;;;11.80;99.90;;;;;;7408333;19;19923;-79
2023/05/05 01:35:02;;;;;;;6.88;3.13;;;11.80;99.90;;;;;;7407061;19;20257;-79
2023/05/05 01:37:35;;;;;;;7.43;3.42;;;11.80;99.90;;;;;;7407489;19;19929;-80
2023/05/05 01:40:08;;;;;;;7.28;2.80;;;11.60;99.90;;;;;;7408455;19;20019;-79
2023/05/05 01:42:39;;;;;;;5.18;3.20;;;11.40;99.90;;;;;;7408389;19;19923;-79
2023/05/05 01:45:12;;;;;;;9.65;3.15;;;11.50;99.90;;;;;;7410125;19;19925;-79
2023/05/05 01:47:45;;;;;;;8.20;3.22;;;11.70;99.90;;;;;;7402616;19;19929;-80
2023/05/05 01:50:16;;;;;;;8.63;3.03;;;13.10;99.90;;;;;;7405044;19;19932;-79
2023/05/05 01:52:46;;;;;;;8.30;3.35;;;11.50;99.90;;;;;;7404589;19;19943;-79
2023/05/05 01:55:19;;;;;;;6.75;2.80;;;11.40;99.90;;;;;;7406227;19;19933;-79
2023/05/05 01:57:50;;;;;;;6.93;3.05;;;11.50;99.90;;;;;;7405891;19;19918;-79
2023/05/05 02:00:21;;;;;;;7.63;3.08;;;11.50;99.90;;;;;;7405239;19;19918;-79
2023/05/05 02:02:53;;;;;;;4.97;3.08;;;11.40;99.90;;;;;;7404441;19;20388;-79
2023/05/05 02:05:23;;;;;;;5.68;2.95;;;11.30;99.90;;;;;;7404943;19;19922;-79
2023/05/05 02:07:56;;;;;;;5.75;2.70;;;11.60;99.90;;;;;;7406964;19;19923;-79
2023/05/05 02:10:25;;;;;;;8.48;2.80;;;11.40;99.90;;;;;;7404512;19;19926;-79
2023/05/05 02:12:55;;;;;;;6.38;3.05;;;11.40;99.90;;;;;;7406177;19;19926;-78
2023/05/05 02:15:25;;;;;;;9.90;3.50;;;11.40;99.90;;;;;;7406005;19;19933;-78
2023/05/05 02:17:58;;;;;;;6.50;2.80;;;11.40;99.90;;;;;;7405139;19;19923;-79
2023/05/05 02:20:29;;;;;;;5.65;2.58;;;11.40;99.90;;;;;;7406673;19;19930;-79
2023/05/05 02:22:58;;;;;;;11.20;3.03;;;11.40;99.90;;;;;;7403167;19;20009;-79
2023/05/05 02:25:32;;;;;;;8.82;2.92;;;11.30;99.90;;;;;;7405135;19;19942;-79
2023/05/05 02:28:04;;;;;;;6.22;2.88;;;11.30;99.90;;;;;;7406642;19;19982;-79
2023/05/05 02:30:36;;;;;;;6.82;3.15;;;11.40;99.90;;;;;;7403948;19;20379;-79
2023/05/05 02:33:11;;;;;;;6.82;3.38;;;11.40;99.90;;;;;;7403140;19;19986;-79
2023/05/05 02:35:42;;;;;;;3.30;2.67;;;11.10;99.90;;;;;;7404947;19;19931;-79
2023/05/05 02:38:16;;;;;;;8.35;3.10;;;11.20;99.90;;;;;;7406828;19;19919;-78
2023/05/05 02:40:47;;;;;;;7.88;3.05;;;11.10;99.90;;;;;;7404457;19;19945;-79
2023/05/05 02:43:21;;;;;;;7.55;2.78;;;11.20;99.90;;;;;;7404927;19;19946;-79
2023/05/05 02:45:50;;;;;;;7.60;3.47;;;11.30;99.90;;;;;;7404361;19;19919;-78
2023/05/05 02:48:22;;;;;;;7.85;3.00;;;11.30;99.90;;;;;;7404661;19;19926;-78
2023/05/05 02:50:51;;;;;;;;;;;11.10;99.90;;;;;;7405953;19;20291;-78
2023/05/05 02:53:26;;;;;;;7.47;3.00;;;11.10;99.90;;;;;;7403434;19;19922;-79
2023/05/05 02:55:57;;;;;;;5.75;2.58;;;11.20;99.90;;;;;;7405318;19;19918;-79
2023/05/05 02:58:32;;;;;;;6.47;2.72;;;11.20;99.90;;;;;;7406575;19;19919;-79
2023/05/05 03:01:13;;;;;;;7.35;2.80;;;11.10;99.90;;;;;;7407248;19;19918;-80
2023/05/05 03:03:49;;;;;;;4.35;2.70;;;11.30;99.90;;;;;;7404970;19;19927;-81
2023/05/05 03:06:21;;;;;;;5.18;2.97;;;11.20;99.90;;;;;;7406828;19;19918;-81
2023/05/05 03:08:57;;;;;;;4.72;2.90;;;11.20;99.90;;;;;;7406273;19;19950;-81
2023/05/05 03:11:33;;;;;;;6.00;2.80;;;11.20;99.90;;;;;;7406738;19;20660;-81
2023/05/05 03:14:08;;;;;;;5.63;2.83;;;11.40;99.90;;;;;;7407418;19;19995;-81
2023/05/05 03:16:39;;;;;;;5.55;2.60;;;11.20;99.90;;;;;;7409224;19;19946;-81
2023/05/05 03:19:13;;;;;;;5.72;2.83;;;11.30;99.90;;;;;;7404940;19;19943;-78
2023/05/05 03:21:43;;;;;;;5.07;2.80;;;11.30;99.90;;;;;;7402902;19;19933;-81
2023/05/05 03:24:16;;;;;;;5.55;2.75;;;11.20;99.90;;;;;;7401816;19;20241;-78
2023/05/05 03:26:47;;;;;;;5.40;2.88;;;11.20;99.90;;;;;;7403485;19;19923;-80
2023/05/05 03:29:16;;;;;;;7.03;2.80;;;11.10;99.90;;;;;;7402879;19;19925;-79
2023/05/05 03:31:45;;;;;;;5.97;2.80;;;11.20;99.90;;;;;;7403025;19;19922;-80
2023/05/05 03:34:17;;;;;;;4.68;2.67;;;11.00;99.90;;;;;;7402717;19;19945;-81
2023/05/05 03:36:45;;;;;;;7.53;2.65;;;11.10;99.90;;;;;;7403812;19;19930;-81
2023/05/05 03:39:14;;;;;;;6.05;2.70;;;11.00;99.90;;;;;;7404121;19;20331;-78
2023/05/05 03:41:43;;;;;;;5.13;2.95;;;11.20;99.90;;;;;;7403081;19;19923;-78
2023/05/05 03:44:12;;;;;;;5.78;2.45;;;11.10;99.90;;;;;;7403892;19;20340;-78
2023/05/05 03:46:42;;;;;;;7.38;2.90;;;11.10;99.90;;;;;;7404228;19;20372;-80
2023/05/05 03:49:11;;;;;;;4.13;2.47;;;11.10;99.90;;;;;;7399830;19;19932;-80
2023/05/05 03:51:43;;;;;;;5.70;2.92;;;11.20;99.90;;;;;;7399274;19;19950;-80
2023/05/05 03:54:12;;;;;;;4.32;2.70;;;11.00;99.90;;;;;;7400594;19;19926;-79
2023/05/05 03:56:41;;;;;;;4.95;3.00;;;11.00;99.90;;;;;;7403756;19;19960;-79
2023/05/05 03:59:10;;;;;;;7.53;2.63;;;11.00;99.90;;;;;;7403280;19;20242;-79
2023/05/05 04:01:39;;;;;;;5.85;2.85;;;11.10;99.90;;;;;;7398072;19;19918;-79
2023/05/05 04:04:08;;;;;;;5.30;3.45;;;11.00;99.90;;;;;;7403178;19;19923;-79
2023/05/05 04:06:37;;;;;;;3.58;2.90;;;10.90;99.90;;;;;;7401155;19;19930;-79
2023/05/05 04:09:08;;;;;;;5.60;2.70;;;10.80;99.90;;;;;;7402201;19;20006;-79
2023/05/05 04:11:37;;;;;;;10.50;3.25;;;10.90;99.90;;;;;;7400142;19;19941;-78
2023/05/05 04:14:06;;;;;;;5.15;2.80;;;10.90;99.90;;;;;;7401449;19;19926;-78
2023/05/05 04:16:35;;;;;;;3.15;2.53;;;10.90;99.90;;;;;;7403980;19;19922;-79
2023/05/05 04:19:03;;;;;;;7.65;2.60;;;11.00;99.90;;;;;;7402852;19;19919;-79
2023/05/05 04:21:33;;;;;;;7.07;3.28;;;11.00;99.90;;;;;;7400932;19;20705;-79
2023/05/05 04:24:01;;;;;;;8.00;3.55;;;10.80;99.90;;;;;;7403335;19;20253;-80
2023/05/05 04:26:33;;;;;;;5.60;2.95;;;11.00;99.90;;;;;;7404944;19;19929;-79
2023/05/05 04:29:02;;;;;;;5.60;2.78;;;10.90;99.90;;;;;;7401538;19;19974;-79
2023/05/05 04:31:31;;;;;;;7.65;3.78;;;10.90;99.90;;;;;;7403584;19;19927;-78
2023/05/05 04:33:59;;;;;;;4.72;3.28;;;10.90;99.90;;;;;;7402084;19;19923;-78
2023/05/05 04:36:28;;;;;;;5.07;3.05;;;10.90;99.90;;;;;;7394859;19;19932;-78
2023/05/05 04:38:57;;;;;;;6.47;2.63;;;11.10;99.90;;;;;;7402210;19;20465;-78
2023/05/05 04:41:26;;;;;;;5.25;2.92;;;11.00;99.90;;;;;;7404156;19;19937;-79
2023/05/05 04:43:58;;;;;;;4.53;2.55;;;11.00;99.90;;;;;;7402499;19;19925;-78
2023/05/05 04:46:26;;;;;;;3.95;2.80;;;11.00;99.90;;;;;;7401682;19;19934;-78
2023/05/05 04:48:56;;;;;;;8.65;2.70;;;11.10;99.90;;;;;;7400981;19;19993;-78
2023/05/05 04:51:26;;;;;;;5.65;3.03;;;11.20;99.90;;;;;;7401611;19;20268;-78
2023/05/05 04:53:55;;;;;;;5.85;2.63;;;11.30;99.90;;;;;;7403582;19;19918;-78
2023/05/05 04:56:24;;;;;;;4.90;2.90;;;11.20;99.90;;;;;;7403434;19;19925;-78
2023/05/05 04:58:53;;;;;;;3.25;2.80;;;11.30;99.90;;;;;;7401651;19;20365;-78
2023/05/05 05:01:24;;;;;;;4.75;3.38;;;11.20;99.90;;;;;;7402101;19;19922;-78
2023/05/05 05:03:53;;;;;;;5.45;2.92;;;11.10;99.90;;;;;;7400562;19;20275;-79
2023/05/05 05:06:22;;;;;;;3.85;2.75;;;11.20;99.90;;;;;;7402182;19;19934;-78
2023/05/05 05:08:51;;;;;;;7.00;3.28;;;11.20;99.90;;;;;;7401564;19;19930;-78
2023/05/05 05:11:20;;;;;;;5.50;3.30;;;11.20;99.90;;;;;;7399338;19;19925;-78
2023/05/05 05:13:49;;;;;;;4.47;2.95;;;11.10;99.90;;;;;;7403430;19;19926;-78
2023/05/05 05:16:18;;;;;;;4.50;2.90;;;11.10;99.90;;;;;;7401125;19;19986;-78
2023/05/05 05:18:49;;;;;;;5.35;3.15;;;11.10;99.90;;;;;;7400658;19;19929;-78
2023/05/05 05:21:18;;;;;;;7.75;2.90;;;11.00;99.90;;;;;;7402367;19;19946;-78
2023/05/05 05:23:47;;;;;;;7.40;3.63;;;11.00;99.90;;;;;;7403008;19;19926;-78
2023/05/05 05:26:16;;;;;;;5.93;3.28;;;10.90;99.90;;;;;;7402011;19;19978;-79
2023/05/05 05:28:45;;;;;;;6.57;3.38;;;11.00;99.90;;;;;;7401385;19;19922;-77
2023/05/05 05:31:14;;;;;;;5.95;3.10;;;10.90;99.90;;;;;;7400918;19;19922;-78
2023/05/05 05:33:43;;;;;;;4.93;3.05;;;11.00;99.90;;;;;;7401281;19;19918;-77
2023/05/05 05:36:14;;;;;;;4.32;3.17;;;10.80;99.90;;;;;;7401183;19;19930;-77
2023/05/05 05:38:43;;;;;;;5.88;2.88;;;10.80;99.90;;;;;;7397390;19;19918;-77
2023/05/05 05:41:13;;;;;;;8.10;3.63;;;10.90;99.90;;;;;;7400771;19;19919;-78
2023/05/05 05:43:41;;;;;;;6.45;3.45;;;10.80;99.90;;;;;;7401167;19;19914;-78
2023/05/05 05:46:11;;;;;;;6.68;3.03;;;10.80;99.90;;;;;;7400170;19;20534;-77
2023/05/05 05:48:40;;;;;;;5.90;3.17;;;10.70;99.90;;;;;;7399116;19;19922;-77
2023/05/05 05:51:09;;;;;;;5.85;3.30;;;10.70;99.90;;;;;;7397313;19;19906;-78
2023/05/05 05:53:41;;;;;;;5.82;3.20;;;10.60;99.90;;;;;;7397446;19;19925;-78
2023/05/05 05:56:11;;;;;;;7.47;3.40;;;10.50;99.90;;;;;;7398095;19;19926;-77
2023/05/05 05:58:41;;;;;;;7.90;3.20;;;10.70;99.90;;;;;;7397677;19;20005;-77
2023/05/05 06:01:10;;;;;;;4.75;2.90;;;10.60;99.90;;;;;;7400426;19;19915;-77
2023/05/05 06:03:38;;;;;;;6.95;3.10;;;10.40;99.90;;;;;;7400883;19;19915;-77
2023/05/05 06:06:07;;;;;;;10.80;3.50;;;10.40;99.90;;;;;;7399553;19;19918;-76
2023/05/05 06:08:36;;;;;;;9.02;3.67;;;10.60;99.90;;;;;;7400195;19;19987;-74
2023/05/05 06:11:08;;;;;;;5.47;3.17;;;10.40;99.90;;;;;;7399228;19;19922;-75
2023/05/05 06:13:37;;;;;;;7.30;3.75;;;10.50;99.90;;;;;;7405443;19;19939;-75
2023/05/05 06:16:06;;;;;;;8.18;3.83;;;10.40;99.90;;;;;;7402997;19;19922;-76
2023/05/05 06:18:35;;;;;;;5.88;3.03;;;10.60;99.90;;;;;;7400766;19;20529;-76
2023/05/05 06:21:04;;;;;;;7.05;3.13;;;10.50;99.90;;;;;;7403971;19;20394;-75
2023/05/05 06:23:33;;;;;;;6.63;3.65;;;10.50;99.90;;;;;;7402661;19;19968;-79
2023/05/05 06:26:02;;;;;;;4.88;3.38;;;10.50;99.90;;;;;;7405336;19;19978;-77
2023/05/05 06:28:33;;;;;;;6.80;3.03;;;10.50;99.90;;;;;;7405713;19;19926;-77
2023/05/05 06:31:02;;;;;;;8.10;3.75;;;10.60;99.90;;;;;;7403124;19;19933;-77
2023/05/05 06:33:31;;;;;;;5.13;4.22;;;10.60;99.90;;;;;;7399030;19;19922;-77
2023/05/05 06:36:00;;;;;;;6.50;3.50;;;10.70;99.90;;;;;;7406900;19;20383;-77
2023/05/05 06:38:29;;;;;;;5.63;3.95;;;10.80;99.90;;;;;;7403134;19;19921;-76
2023/05/05 06:40:59;;;;;;;6.32;3.67;;;10.90;99.90;;;;;;7402928;19;19943;-77
2023/05/05 06:43:27;;;;;;;9.95;3.72;;;10.80;99.90;;;;;;7402716;19;19926;-77
2023/05/05 06:45:59;;;;;;;5.50;3.65;;;11.00;99.90;;;;;;7405332;19;19954;-78
2023/05/05 06:48:28;;;;;;;7.78;3.88;;;11.10;99.90;;;;;;7404355;19;20368;-77
2023/05/05 06:50:58;;;;;;;5.03;3.80;;;11.10;99.90;;;;;;7404739;19;19922;-78
2023/05/05 06:53:27;;;;;;;5.15;3.25;;;11.10;99.90;;;;;;7402642;19;19929;-78
2023/05/05 06:55:56;;;;;;;11.10;3.85;;;11.30;99.90;;;;;;7405052;19;19918;-78
2023/05/05 06:58:25;;;;;;;8.50;3.58;;;11.30;99.90;;;;;;7406568;19;20633;-78
2023/05/05 07:00:54;;;;;;;8.07;3.55;;;11.10;99.90;;;;;;7404005;19;19927;-78
2023/05/05 07:03:26;;;;;;;8.75;3.70;;;11.20;99.90;;;;;;7403946;19;19929;-78
2023/05/05 07:05:56;;;;;;;7.93;3.92;;;11.20;99.90;;;;;;7404062;19;19946;-78
2023/05/05 07:08:26;;;;;;;5.25;3.45;;;11.40;99.90;;;;;;7403320;19;19942;-78
2023/05/05 07:10:55;;;;;;;6.97;4.00;;;11.20;99.90;;;;;;7402512;19;20241;-78
2023/05/05 07:13:24;;;;;;;6.00;3.88;;;11.30;99.90;;;;;;7403805;19;19934;-78
2023/05/05 07:15:53;;;;;;;9.90;4.00;;;11.30;99.90;;;;;;7404047;19;19926;-79
2023/05/05 07:18:21;;;;;;;10.68;4.47;;;11.20;99.90;;;;;;7405354;19;19929;-79
2023/05/05 07:20:53;;;;;;;7.85;3.72;;;11.30;99.90;;;;;;7404336;19;19937;-78
2023/05/05 07:23:22;;;;;;;7.47;3.55;;;11.10;99.90;;;;;;7402421;19;20520;-77
2023/05/05 07:25:51;;;;;;;6.05;4.10;;;11.30;99.90;;;;;;7403808;19;19928;-78
2023/05/05 07:28:21;;;;;;;7.45;4.32;;;11.30;99.90;;;;;;7404483;19;19915;-78
2023/05/05 07:30:50;;;;;;;5.47;4.00;;;11.40;99.90;;;;;;7402803;19;19927;-77
2023/05/05 07:33:20;;;;;;;11.20;4.25;;;11.50;99.90;;;;;;7402807;19;19982;-77
2023/05/05 07:35:48;;;;;;;7.85;4.30;;;11.50;99.90;;;;;;7403971;19;19919;-77
2023/05/05 07:38:20;;;;;;;5.25;4.07;;;11.40;99.90;;;;;;7403889;19;19923;-78
2023/05/05 07:40:49;;;;;;;8.68;4.85;;;11.50;99.90;;;;;;7404340;19;20359;-77
2023/05/05 07:43:18;;;;;;;6.90;4.57;;;11.60;99.90;;;;;;7403881;19;19989;-77
2023/05/05 07:45:47;;;;;;;7.32;4.60;;;11.60;99.90;;;;;;7402759;19;19923;-77
2023/05/05 07:48:16;;;;;;;9.23;4.28;;;11.50;99.90;;;;;;7402478;19;19918;-77
2023/05/05 07:50:44;;;;;;;8.45;4.38;;;11.60;99.90;;;;;;7402885;19;19937;-77
2023/05/05 07:53:13;;;;;;;7.30;3.88;;;11.60;99.90;;;;;;7401454;19;19922;-77
2023/05/05 07:55:46;;;;;;;6.95;5.13;;;11.60;99.90;;;;;;7402442;19;20240;-77
2023/05/05 07:58:15;;;;;;;5.63;4.38;;;11.70;99.90;;;;;;7402810;19;19925;-78
2023/05/05 08:00:44;;;;;;;5.40;4.13;;;11.60;99.90;;;;;;7402907;19;19928;-78
2023/05/05 08:03:12;;;;;;;6.88;4.15;;;11.70;99.90;;;;;;7401178;19;19928;-78
2023/05/05 08:05:41;;;;;;;6.30;4.35;;;11.70;99.90;;;;;;7401908;19;19926;-78
2023/05/05 08:08:10;;;;;;;10.45;4.10;;;11.70;99.90;;;;;;7404071;19;19945;-77
2023/05/05 08:10:39;;;;;;;6.40;4.35;;;11.60;99.90;;;;;;7401200;19;20352;-78
2023/05/05 08:13:11;;;;;;;8.07;4.60;;;11.80;99.90;;;;;;7400966;19;19914;-78
2023/05/05 08:15:40;;;;;;;8.10;4.07;;;11.70;99.90;;;;;;7402005;19;19928;-78
2023/05/05 08:18:08;;;;;;;6.55;4.45;;;11.80;99.90;;;;;;7402613;19;19922;-78
2023/05/05 08:20:37;;;;;;;9.25;4.40;;;11.90;99.90;;;;;;7401015;19;19919;-78
2023/05/05 08:23:07;;;;;;;8.73;5.25;;;11.80;99.90;;;;;;7402761;19;19929;-78
2023/05/05 08:25:36;;;;;;;8.52;4.53;;;11.90;99.90;;;;;;7402830;19;20572;-78
2023/05/05 08:28:05;;;;;;;7.10;4.90;;;11.90;99.90;;;;;;7402869;19;20423;-77
2023/05/05 08:30:37;;;;;;;9.00;5.93;;;11.90;99.90;;;;;;7402195;19;19919;-78
2023/05/05 08:33:06;;;;;;;9.77;6.10;;;12.00;99.90;;;;;;7398949;19;19937;-79
2023/05/05 08:35:35;;;;;;;10.15;5.40;;;12.20;99.90;;;;;;7400554;19;19974;-77
2023/05/05 08:38:04;;;;;;;7.63;4.78;;;12.20;99.90;;;;;;7400470;19;20261;-79
2023/05/05 08:40:35;;;;;;;8.98;5.55;;;12.20;99.90;;;;;;7403346;19;20352;-78
2023/05/05 08:43:04;;;;;;;;;;;12.30;99.90;;;;;;7404031;19;19918;-78
2023/05/05 08:45:36;;;;;;;6.38;4.68;;;12.50;99.90;;;;;;7400233;19;19929;-78
2023/05/05 08:48:06;;;;;;;8.02;5.15;;;12.40;99.90;;;;;;7400595;19;19926;-78
2023/05/05 08:50:35;;;;;;;8.38;5.00;;;12.60;99.90;;;;;;7401395;19;19990;-79
2023/05/05 08:53:11;;;;;;;8.20;5.00;;;12.50;99.90;;;;;;7397758;19;19934;-78
2023/05/05 08:55:49;;;;;;;7.00;5.30;;;12.70;99.90;;;;;;7402836;19;20363;-78
2023/05/05 08:58:20;;;;;;;8.50;5.35;;;12.70;99.90;;;;;;7401161;19;20005;-79
2023/05/05 09:00:52;;;;;;;10.73;6.30;;;12.80;99.90;;;;;;7400944;19;20284;-79
2023/05/05 09:03:21;;;;;;;8.50;6.25;;;12.80;99.90;;;;;;7401924;19;19930;-78
2023/05/05 09:05:52;;;;;;;6.78;4.93;;;13.90;99.90;;;;;;7401023;19;19981;-76
2023/05/05 09:08:22;;;;;;;9.80;5.45;;;13.00;99.90;;;;;;7401939;19;19922;-78
2023/05/05 09:10:53;;;;;;;9.40;5.90;;;13.00;99.90;;;;;;7403033;19;19929;-78
2023/05/05 09:13:22;;;;;;;10.88;5.80;;;13.10;99.90;;;;;;7399555;19;20451;-78
2023/05/05 09:15:53;;;;;;;11.00;5.85;;;13.10;99.90;;;;;;7400815;19;19925;-78
2023/05/05 09:18:22;;;;;;;10.65;6.03;;;13.20;99.90;;;;;;7402540;19;20340;-78
2023/05/05 09:20:51;;;;;;;8.15;5.75;;;13.40;99.90;;;;;;7400660;19;19929;-79
2023/05/05 09:23:22;;;;;;;10.45;5.70;;;13.50;99.90;;;;;;7400343;19;19919;-78
2023/05/05 09:26:07;;;;;;;10.43;6.07;;;13.60;99.90;;;;;;7399592;19;19919;-78
2023/05/05 09:28:36;;;;;;;8.38;5.82;;;13.70;99.90;;;;;;7400861;19;19917;-78
2023/05/05 09:31:18;;;;;;;10.65;6.60;;;13.90;99.90;;;;;;7400152;19;19929;-79
2023/05/05 09:33:48;;;;;;;7.43;5.95;;;13.90;99.90;;;;;;7398346;19;19937;-79
2023/05/05 09:36:17;;;;;;;9.45;6.57;;;13.90;99.90;;;;;;7397170;19;19935;-79
2023/05/05 09:39:06;;;;;;;11.18;6.75;;;14.00;99.90;;;;;;7399084;19;19926;-78
2023/05/05 09:41:43;;;;;;;9.55;6.45;;;14.10;99.90;;;;;;7399137;19;19926;-79
2023/05/05 09:44:14;;;;;;;10.10;6.40;;;14.10;99.90;;;;;;7398989;19;19922;-78
2023/05/05 09:46:54;;;;;;;;;;;14.30;99.90;;;;;;7405906;19;19998;-78
2023/05/05 09:49:25;;;;;;;10.65;6.78;;;14.40;99.90;;;;;;7404716;19;19942;-78
2023/05/05 09:51:54;;;;;;;;;;;14.50;99.90;;;;;;7408093;19;19942;-79
2023/05/05 09:54:27;;;;;;;8.13;6.65;;;14.50;99.90;;;;;;7405211;19;19925;-78
2023/05/05 09:56:56;;;;;;;11.88;6.90;;;14.50;99.90;;;;;;7406485;19;19966;-78
2023/05/05 09:59:26;;;;;;;9.15;7.03;;;14.70;99.90;;;;;;7405099;19;19914;-78
2023/05/05 10:02:12;;;;;;;9.73;7.30;;;14.90;99.90;;;;;;7405689;19;19922;-78
2023/05/05 10:04:41;;;;;;;10.50;7.78;;;14.80;99.90;;;;;;7405018;19;19959;-78
2023/05/05 10:07:10;;;;;;;12.13;6.90;;;15.20;99.90;;;;;;7405160;19;19925;-78
2023/05/05 10:09:39;;;;;;;11.52;7.13;;;15.20;99.90;;;;;;7404723;19;20354;-78
2023/05/05 10:12:10;;;;;;;;;;;15.20;99.90;;;;;;7406963;19;20371;-78
2023/05/05 10:14:39;;;;;;;12.63;8.40;;;15.40;99.90;;;;;;7405825;19;19926;-78
2023/05/05 10:17:12;;;;;;;13.00;7.55;;;15.40;99.90;;;;;;7404655;19;19945;-77
2023/05/05 10:19:41;;;;;;;11.05;8.43;;;15.50;99.90;;;;;;7401000;19;19941;-75
2023/05/05 10:22:12;;;;;;;10.82;8.43;;;17.20;99.90;;;;;;7398296;19;19933;-75
2023/05/05 10:24:44;;;;;;;9.57;7.68;;;15.70;99.90;;;;;;7402900;19;19929;-76
2023/05/05 10:27:17;;;;;;;10.90;7.30;;;15.90;99.90;;;;;;7397039;19;19918;-72
2023/05/05 10:29:53;;;;;;;10.80;8.85;;;16.10;99.90;;;;;;7404310;19;19957;-75
2023/05/05 10:32:28;;;;;;;11.77;8.25;;;16.00;99.90;;;;;;7402455;19;19918;-73
2023/05/05 10:35:01;;;;;;;13.32;8.45;;;16.10;99.90;;;;;;7401266;19;19942;-74
2023/05/05 10:37:31;;;;;;;11.98;9.30;;;16.30;99.90;;;;;;7404221;19;19929;-74
2023/05/05 10:40:00;;;;;;;12.13;9.00;;;16.40;99.90;;;;;;7404050;19;19929;-73
2023/05/05 10:42:30;;;;;;;14.40;8.88;;;16.60;99.90;;;;;;7403034;19;19926;-74
2023/05/05 10:44:59;;;;;;;11.82;9.23;;;16.50;99.90;;;;;;7404513;19;19926;-74
2023/05/05 10:47:31;;;;;;;11.30;8.70;;;16.70;99.90;;;;;;7404690;19;19922;-73
2023/05/05 10:50:06;;;;;;;12.10;9.13;;;16.70;99.90;;;;;;7403142;19;19926;-74
2023/05/05 10:52:39;;;;;;;12.65;8.90;;;16.70;99.90;;;;;;7402304;19;19926;-73
2023/05/05 10:55:15;;;;;;;12.75;8.13;;;17.10;99.90;;;;;;7403369;19;19919;-74
2023/05/05 10:57:46;;;;;;;11.07;9.00;;;17.00;99.90;;;;;;7400370;19;19922;-73
2023/05/05 11:00:48;;;;;;;14.48;10.27;;;17.10;99.90;;;;;;7402174;19;19946;-74
2023/05/05 11:03:26;;;;;;;14.48;9.77;;;17.30;99.90;;;;;;7402795;19;19922;-73
2023/05/05 11:06:16;;;;;;;13.55;10.15;;;17.40;99.90;;;;;;7400980;19;19946;-72
2023/05/05 11:08:46;;;;;;;13.63;9.10;;;17.70;99.90;;;;;;7400496;19;19925;-72
2023/05/05 11:11:15;;;;;;;12.38;9.15;;;17.50;99.90;;;;;;7400469;19;19994;-73
2023/05/05 11:13:44;;;;;;;10.98;8.55;;;17.60;99.90;;;;;;7399778;19;19918;-73
2023/05/05 11:16:43;;;;;;;14.35;10.02;;;17.90;99.90;;;;;;7398060;19;19934;-73
2023/05/05 11:19:41;;;;;;;12.82;9.82;;;18.00;99.90;;;;;;7403359;19;19990;-73
2023/05/05 11:22:14;;;;;;;21.33;10.18;;;18.20;99.90;;;;;;7402763;19;19922;-73
2023/05/05 11:24:43;;;;;;;13.50;9.18;;;18.20;99.90;;;;;;7402488;19;19926;-72
2023/05/05 11:27:12;;;;;;;16.10;9.95;;;18.10;99.90;;;;;;7402153;19;19970;-72
2023/05/05 11:30:14;;;;;;;16.13;10.48;;;18.20;99.90;;;;;;7397204;19;19929;-73
2023/05/05 11:32:42;;;;;;;14.82;10.38;;;18.00;99.90;;;;;;7402709;19;19923;-74
2023/05/05 11:35:11;;;;;;;13.73;10.40;;;17.90;99.90;;;;;;7400337;19;19923;-74
2023/05/05 11:37:44;;;;;;;15.15;9.63;;;18.20;99.90;;;;;;7401233;19;20067;-74
2023/05/05 11:40:22;;;;;;;12.52;10.77;;;18.30;99.90;;;;;;7402569;19;19929;-75
2023/05/05 11:42:51;;;;;;;13.90;9.35;;;18.20;99.90;;;;;;7402690;19;19922;-75
2023/05/05 11:45:25;;;;;;;12.52;9.60;;;18.30;99.90;;;;;;7403928;19;19997;-75
2023/05/05 11:47:54;;;;;;;17.48;10.85;;;18.30;99.90;;;;;;7403657;19;20232;-76
2023/05/05 11:50:23;;;;;;;15.57;9.65;;;18.50;99.90;;;;;;7402444;19;19919;-76
2023/05/05 11:52:54;;;;;;;14.50;11.60;;;18.50;99.90;;;;;;7401675;19;19929;-74
2023/05/05 11:55:24;;;;;;;12.75;8.73;;;18.70;99.90;;;;;;7402969;19;19930;-75
2023/05/05 11:57:53;;;;;;;13.73;10.80;;;18.50;99.90;;;;;;7398342;19;20252;-74
2023/05/05 12:00:34;;;;;;;11.95;9.32;;;18.90;99.90;;;;;;7402839;19;20017;-74
2023/05/05 12:03:03;;;;;;;14.50;10.00;;;18.80;99.90;;;;;;7400866;19;19929;-75
2023/05/05 12:05:33;;;;;;;13.85;9.95;;;19.10;99.90;;;;;;7393786;19;19922;-73
2023/05/05 12:08:04;;;;;;;12.80;9.23;;;19.00;99.90;;;;;;7398933;19;19990;-76
2023/05/05 12:10:33;;;;;;;;;;;19.00;99.90;;;;;;7393428;19;20249;-73
2023/05/05 12:13:02;;;;;;;14.60;9.50;;;19.00;99.90;;;;;;7398694;19;19994;-74
2023/05/05 12:15:32;;;;;;;16.75;11.55;;;19.10;99.90;;;;;;7396836;19;19986;-76
2023/05/05 12:18:01;;;;;;;14.60;10.60;;;19.00;99.90;;;;;;7393751;19;19922;-73
2023/05/05 12:20:35;;;;;;;13.95;10.30;;;19.20;99.90;;;;;;7399264;19;19930;-71
2023/05/05 12:23:10;;;;;;;13.68;10.40;;;19.20;99.90;;;;;;7396518;19;19941;-73
2023/05/05 12:25:41;;;;;;;19.73;10.80;;;19.10;99.90;;;;;;7398527;19;20267;-73
2023/05/05 12:28:11;;;;;;;13.68;10.02;;;19.20;99.90;;;;;;7400929;19;19939;-72
2023/05/05 12:30:40;;;;;;;17.70;10.75;;;19.10;99.90;;;;;;7399685;19;19929;-72
2023/05/05 12:33:09;;;;;;;12.63;10.93;;;19.10;99.90;;;;;;7397433;19;20382;-72
2023/05/05 12:35:38;;;;;;;14.77;9.90;;;19.00;99.90;;;;;;7400238;19;19922;-72
2023/05/05 12:38:10;;;;;;;12.48;9.88;;;19.10;99.90;;;;;;7399820;19;19925;-73
2023/05/05 12:40:46;;;;;;;;;;;18.90;99.90;;;;;;7400608;19;20359;-73
2023/05/05 12:43:29;;;;;;;13.30;9.90;;;19.00;99.90;;;;;;7397591;19;19942;-73
2023/05/05 12:46:08;;;;;;;13.57;10.73;;;18.80;99.90;;;;;;7396895;19;19982;-73
2023/05/05 12:48:39;;;;;;;14.48;11.45;;;18.80;99.90;;;;;;7399651;19;19982;-73
2023/05/05 12:51:19;;;;;;;16.08;10.52;;;18.70;99.90;;;;;;7398293;19;19953;-72
2023/05/05 12:54:02;;;;;;;17.38;10.15;;;18.50;99.90;;;;;;7398587;19;19923;-73
2023/05/05 12:56:36;;;;;;;14.85;10.90;;;18.40;99.90;;;;;;7398730;19;19933;-74
2023/05/05 12:59:06;;;;;;;16.40;11.60;;;18.30;99.90;;;;;;7399236;19;19926;-74
2023/05/05 13:01:37;;;;;;;15.43;11.48;;;18.20;99.90;;;;;;7399848;19;19923;-74
2023/05/05 13:04:11;;;;;;;15.18;11.68;;;18.20;99.90;;;;;;7398745;19;19930;-73
2023/05/05 13:06:41;;;;;;;16.92;11.35;;;18.00;99.90;;;;;;7395426;19;19946;-73